createdAt,value
2019-02-28T00:00:47.007Z,15.97
2019-02-28T00:03:17.965Z,16.77
2019-02-28T00:05:47.759Z,17.03
2019-02-28T00:08:17.224Z,16.77
2019-02-28T00:10:46.539Z,16.87
2019-02-28T00:13:16.057Z,16.50
2019-02-28T00:15:45.905Z,16.67
2019-02-28T00:18:16.510Z,15.63
2019-02-28T00:20:46.306Z,16.77
2019-02-28T00:23:16.190Z,16.47
2019-02-28T00:25:45.609Z,16.87
2019-02-28T00:28:14.745Z,16.70
2019-02-28T00:30:43.810Z,17.00
2019-02-28T00:33:12.718Z,17.33
2019-02-28T00:35:44.699Z,17.00
2019-02-28T00:38:12.249Z,16.93
2019-02-28T00:40:41.604Z,17.03
2019-02-28T00:43:10.592Z,16.63
2019-02-28T00:45:39.525Z,16.77
2019-02-28T00:48:08.805Z,17.07
2019-02-28T00:50:39.282Z,17.00
2019-02-28T00:53:08.674Z,17.00
2019-02-28T00:55:38.300Z,17.50
2019-02-28T00:58:07.737Z,17.00
2019-02-28T01:00:38.187Z,18.17
2019-02-28T01:03:07.796Z,19.17
2019-02-28T01:05:37.425Z,16.97
2019-02-28T01:08:06.931Z,18.03
2019-02-28T01:10:39.211Z,17.90
2019-02-28T01:13:07.737Z,18.10
2019-02-28T01:15:37.119Z,17.93
2019-02-28T01:18:06.559Z,18.67
2019-02-28T01:20:36.155Z,17.97
2019-02-28T01:23:05.816Z,17.30
2019-02-28T01:25:37.167Z,17.33
2019-02-28T01:28:06.385Z,17.93
2019-02-28T01:30:37.082Z,16.57
2019-02-28T01:33:06.878Z,17.10
2019-02-28T01:35:37.511Z,16.17
2019-02-28T01:38:07.330Z,18.57
2019-02-28T01:40:37.740Z,18.07
2019-02-28T01:43:07.815Z,16.63
2019-02-28T01:45:37.220Z,17.80
2019-02-28T01:48:06.809Z,16.90
2019-02-28T01:50:36.308Z,17.70
2019-02-28T01:53:05.760Z,16.23
2019-02-28T01:55:35.135Z,17.50
2019-02-28T01:58:04.652Z,16.93
2019-02-28T02:00:34.131Z,17.60
2019-02-28T02:03:03.478Z,17.63
2019-02-28T02:05:32.865Z,17.30
2019-02-28T02:08:06.542Z,18.53
2019-02-28T02:10:34.858Z,18.67
2019-02-28T02:13:04.349Z,17.87
2019-02-28T02:15:33.949Z,18.13
2019-02-28T02:18:06.353Z,17.70
2019-02-28T02:20:34.430Z,18.10
2019-02-28T02:23:06.436Z,17.43
2019-02-28T02:25:37.481Z,17.73
2019-02-28T02:28:06.854Z,17.20
2019-02-28T02:30:36.236Z,18.20
2019-02-28T02:33:05.663Z,17.83
2019-02-28T02:35:35.141Z,17.93
2019-02-28T02:38:04.880Z,19.10
2019-02-28T02:40:34.438Z,18.97
2019-02-28T02:43:03.904Z,19.37
2019-02-28T02:45:33.211Z,17.80
2019-02-28T02:48:05.264Z,19.43
2019-02-28T02:50:35.803Z,18.17
2019-02-28T02:53:06.449Z,19.03
2019-02-28T02:55:35.778Z,18.27
2019-02-28T02:58:05.161Z,17.77
2019-02-28T03:00:36.350Z,17.67
2019-02-28T03:03:06.354Z,18.93
2019-02-28T03:05:37.227Z,18.07
2019-02-28T03:08:06.556Z,18.87
2019-02-28T03:10:36.226Z,18.67
2019-02-28T03:13:06.464Z,18.33
2019-02-28T03:15:36.093Z,18.57
2019-02-28T03:18:05.575Z,17.53
2019-02-28T03:20:35.225Z,18.40
2019-02-28T03:23:04.654Z,17.07
2019-02-28T03:25:34.101Z,18.93
2019-02-28T03:28:03.762Z,18.30
2019-02-28T03:30:33.873Z,19.43
2019-02-28T03:33:04.808Z,18.13
2019-02-28T03:35:43.571Z,18.83
2019-02-28T03:38:10.791Z,18.37
2019-02-28T03:40:40.230Z,18.63
2019-02-28T03:43:07.982Z,18.27
2019-02-28T03:45:37.460Z,18.13
2019-02-28T03:48:06.865Z,18.37
2019-02-28T03:50:36.381Z,18.77
2019-02-28T03:53:06.053Z,18.10
2019-02-28T03:55:39.873Z,18.97
2019-02-28T03:58:06.906Z,18.23
2019-02-28T04:00:36.341Z,18.77
2019-02-28T04:03:05.794Z,18.67
2019-02-28T04:05:35.151Z,18.70
2019-02-28T04:08:05.634Z,19.20
2019-02-28T04:10:35.017Z,19.17
2019-02-28T04:13:04.489Z,19.30
2019-02-28T04:15:33.951Z,19.20
2019-02-28T04:18:07.460Z,18.13
2019-02-28T04:20:37.476Z,18.53
2019-02-28T04:23:05.566Z,17.63
2019-02-28T04:25:34.890Z,17.43
2019-02-28T04:28:04.747Z,19.80
2019-02-28T04:30:34.549Z,19.17
2019-02-28T04:33:03.982Z,17.97
2019-02-28T04:35:33.311Z,18.97
2019-02-28T04:38:02.662Z,20.00
2019-02-28T04:40:33.078Z,17.47
2019-02-28T04:43:02.449Z,17.57
2019-02-28T04:45:31.764Z,19.17
2019-02-28T04:48:01.160Z,18.40
2019-02-28T04:50:32.072Z,19.30
2019-02-28T04:53:01.778Z,18.40
2019-02-28T04:55:31.100Z,17.23
2019-02-28T04:58:00.416Z,19.07
2019-02-28T05:00:29.780Z,19.03
2019-02-28T05:02:59.148Z,18.97
2019-02-28T05:05:28.477Z,18.63
2019-02-28T05:07:57.953Z,18.87
2019-02-28T05:10:28.517Z,19.07
2019-02-28T05:12:58.333Z,20.07
2019-02-28T05:15:27.887Z,19.40
2019-02-28T05:17:57.349Z,18.60
2019-02-28T05:20:27.174Z,18.57
2019-02-28T05:22:59.288Z,19.10
2019-02-28T05:25:27.861Z,18.83
2019-02-28T05:27:57.253Z,20.23
2019-02-28T05:30:26.583Z,19.00
2019-02-28T05:32:55.963Z,19.47
2019-02-28T05:35:26.637Z,19.73
2019-02-28T05:37:56.334Z,19.30
2019-02-28T05:40:25.707Z,20.50
2019-02-28T05:42:58.394Z,19.10
2019-02-28T05:45:26.099Z,19.17
2019-02-28T05:47:55.513Z,18.73
2019-02-28T05:50:25.152Z,18.93
2019-02-28T05:52:54.707Z,17.37
2019-02-28T05:55:25.615Z,19.13
2019-02-28T05:57:55.535Z,18.70
2019-02-28T06:00:25.590Z,17.77
2019-02-28T06:02:58.021Z,19.47
2019-02-28T06:05:26.005Z,18.80
2019-02-28T06:07:55.595Z,19.67
2019-02-28T06:10:25.011Z,18.30
2019-02-28T06:12:54.496Z,19.90
2019-02-28T06:15:24.173Z,19.07
2019-02-28T06:17:55.030Z,20.57
2019-02-28T06:20:25.221Z,18.47
2019-02-28T06:22:54.754Z,19.43
2019-02-28T06:25:25.680Z,18.97
2019-02-28T06:27:55.329Z,18.37
2019-02-28T06:30:27.865Z,18.80
2019-02-28T06:32:59.267Z,18.63
2019-02-28T06:35:28.660Z,19.17
2019-02-28T06:37:58.179Z,19.50
2019-02-28T06:40:32.561Z,18.00
2019-02-28T06:42:58.673Z,19.13
2019-02-28T06:45:28.130Z,19.20
2019-02-28T06:47:59.411Z,19.07
2019-02-28T06:50:28.694Z,18.90
2019-02-28T06:52:59.313Z,19.27
2019-02-28T06:55:28.344Z,19.63
2019-02-28T06:57:58.854Z,19.53
2019-02-28T07:00:27.884Z,19.87
2019-02-28T07:02:56.787Z,19.27
2019-02-28T07:05:26.342Z,19.87
2019-02-28T07:07:55.805Z,19.33
2019-02-28T07:10:25.838Z,19.13
2019-02-28T07:12:54.812Z,19.30
2019-02-28T07:15:24.937Z,19.63
2019-02-28T07:17:55.263Z,19.33
2019-02-28T07:20:24.175Z,19.80
2019-02-28T07:22:55.531Z,18.97
2019-02-28T07:25:23.863Z,19.13
2019-02-28T07:27:52.929Z,19.47
2019-02-28T07:30:22.034Z,18.87
2019-02-28T07:32:50.941Z,18.70
2019-02-28T07:35:20.030Z,17.43
2019-02-28T07:37:53.196Z,19.50
2019-02-28T07:40:19.749Z,18.27
2019-02-28T07:42:48.673Z,18.10
2019-02-28T07:45:17.580Z,18.43
2019-02-28T07:47:51.606Z,16.60
2019-02-28T07:50:18.933Z,17.80
2019-02-28T07:52:47.897Z,18.20
2019-02-28T07:55:17.582Z,17.47
2019-02-28T07:57:51.110Z,18.53
2019-02-28T08:00:19.666Z,18.50
2019-02-28T08:02:49.271Z,19.20
2019-02-28T08:05:19.027Z,18.80
2019-02-28T08:07:52.086Z,19.27
2019-02-28T08:10:20.609Z,18.00
2019-02-28T08:12:49.700Z,18.30
2019-02-28T08:15:22.335Z,19.17
2019-02-28T08:17:50.783Z,17.57
2019-02-28T08:20:20.825Z,19.10
2019-02-28T08:22:50.710Z,18.33
2019-02-28T08:25:21.131Z,17.93
2019-02-28T08:27:51.704Z,18.27
2019-02-28T08:30:26.203Z,18.57
2019-02-28T08:32:56.631Z,18.73
2019-02-28T08:35:26.088Z,18.53
2019-02-28T08:37:57.262Z,18.57
2019-02-28T08:40:27.884Z,18.93
2019-02-28T08:42:57.522Z,19.90
2019-02-28T08:45:32.867Z,18.80
2019-02-28T08:47:58.038Z,19.00
2019-02-28T08:50:27.601Z,18.63
2019-02-28T08:53:01.998Z,18.37
2019-02-28T08:55:31.479Z,19.33
2019-02-28T08:58:05.358Z,18.57
2019-02-28T09:00:33.269Z,19.20
2019-02-28T09:03:02.603Z,18.27
2019-02-28T09:05:31.830Z,18.73
2019-02-28T09:08:01.014Z,19.13
2019-02-28T09:10:31.360Z,19.23
2019-02-28T09:13:00.375Z,20.50
2019-02-28T09:15:31.105Z,19.93
2019-02-28T09:18:00.415Z,19.47
2019-02-28T09:20:29.383Z,19.63
2019-02-28T09:23:01.565Z,19.00
2019-02-28T09:25:28.962Z,18.30
2019-02-28T09:27:58.061Z,18.80
2019-02-28T09:30:31.653Z,18.93
2019-02-28T09:33:00.949Z,18.00
2019-02-28T09:35:32.909Z,18.27
2019-02-28T09:38:06.378Z,19.53
2019-02-28T09:40:32.811Z,19.03
2019-02-28T09:43:01.886Z,19.00
2019-02-28T09:45:34.666Z,18.47
2019-02-28T09:48:04.329Z,17.90
2019-02-28T09:50:33.422Z,17.57
2019-02-28T09:53:03.648Z,19.17
2019-02-28T09:55:35.370Z,18.93
2019-02-28T09:58:04.268Z,19.07
2019-02-28T10:00:34.020Z,17.60
2019-02-28T10:03:03.014Z,19.70
2019-02-28T10:05:32.473Z,20.00
2019-02-28T10:08:02.946Z,18.33
2019-02-28T10:10:33.128Z,19.20
2019-02-28T10:13:02.654Z,19.10
2019-02-28T10:15:32.222Z,18.60
2019-02-28T10:18:04.284Z,18.40
2019-02-28T10:20:38.288Z,18.30
2019-02-28T10:23:07.920Z,18.27
2019-02-28T10:25:42.548Z,18.60
2019-02-28T10:28:08.495Z,18.10
2019-02-28T10:30:37.973Z,19.57
2019-02-28T10:33:07.446Z,17.73
2019-02-28T10:35:37.711Z,17.57
2019-02-28T10:38:07.499Z,17.90
2019-02-28T10:40:37.035Z,18.83
2019-02-28T10:43:06.526Z,18.27
2019-02-28T10:45:41.049Z,18.37
2019-02-28T10:48:07.912Z,18.77
2019-02-28T10:50:38.717Z,18.57
2019-02-28T10:53:08.237Z,17.90
2019-02-28T10:55:37.801Z,18.63
2019-02-28T10:58:07.215Z,18.17
2019-02-28T11:00:40.427Z,17.93
2019-02-28T11:03:09.977Z,18.40
2019-02-28T11:05:43.690Z,19.30
2019-02-28T11:08:16.402Z,19.53
2019-02-28T11:10:45.933Z,17.90
2019-02-28T11:13:18.581Z,17.57
2019-02-28T11:15:49.167Z,18.47
2019-02-28T11:18:18.374Z,17.47
2019-02-28T11:20:48.435Z,17.37
2019-02-28T11:23:17.724Z,17.67
2019-02-28T11:25:47.270Z,18.17
2019-02-28T11:28:17.118Z,17.23
2019-02-28T11:30:47.673Z,17.17
2019-02-28T11:33:17.575Z,17.73
2019-02-28T11:35:46.637Z,19.03
2019-02-28T11:38:20.351Z,17.23
2019-02-28T11:40:54.676Z,17.47
2019-02-28T11:43:18.735Z,16.70
2019-02-28T11:45:48.525Z,17.23
2019-02-28T11:48:20.431Z,17.53
2019-02-28T11:50:49.513Z,17.50
2019-02-28T11:53:19.231Z,17.37
2019-02-28T11:55:48.582Z,16.37
2019-02-28T11:58:21.042Z,16.33
2019-02-28T12:00:50.786Z,18.10
2019-02-28T12:03:19.914Z,17.03
2019-02-28T12:05:50.507Z,16.93
2019-02-28T12:08:19.961Z,16.47
2019-02-28T12:10:49.352Z,16.73
2019-02-28T12:13:21.168Z,15.93
2019-02-28T12:15:50.639Z,13.83
2019-02-28T12:18:21.542Z,14.00
2019-02-28T12:20:51.144Z,13.33
2019-02-28T12:23:23.460Z,13.33
2019-02-28T12:25:53.254Z,12.90
2019-02-28T12:28:22.687Z,13.43
2019-02-28T12:30:52.227Z,14.27
2019-02-28T12:33:23.302Z,13.20
2019-02-28T12:35:54.744Z,13.50
2019-02-28T12:38:29.094Z,14.27
2019-02-28T12:40:58.268Z,13.40
2019-02-28T12:43:27.399Z,12.47
2019-02-28T12:45:59.811Z,12.90
2019-02-28T12:48:28.480Z,13.80
2019-02-28T12:50:57.958Z,13.20
2019-02-28T12:53:27.597Z,12.67
2019-02-28T12:55:56.848Z,14.87
2019-02-28T12:58:26.076Z,13.00
2019-02-28T13:00:56.325Z,13.13
2019-02-28T13:03:26.537Z,13.90
2019-02-28T13:05:56.009Z,12.43
2019-02-28T13:08:25.424Z,12.63
2019-02-28T13:10:55.063Z,13.50
2019-02-28T13:13:27.740Z,13.23
2019-02-28T13:15:55.848Z,13.00
2019-02-28T13:18:24.936Z,12.93
2019-02-28T13:20:54.289Z,12.87
2019-02-28T13:23:23.738Z,13.13
2019-02-28T13:25:59.105Z,13.47
2019-02-28T13:28:24.320Z,13.27
2019-02-28T13:30:53.727Z,13.17
2019-02-28T13:33:23.182Z,12.97
2019-02-28T13:35:52.596Z,13.30
2019-02-28T13:38:22.247Z,14.30
2019-02-28T13:40:51.242Z,13.80
2019-02-28T13:43:22.483Z,14.27
2019-02-28T13:45:55.679Z,14.73
2019-02-28T13:48:25.949Z,14.60
2019-02-28T13:50:53.891Z,15.07
2019-02-28T13:53:23.586Z,14.37
2019-02-28T13:55:57.791Z,15.23
2019-02-28T13:58:25.123Z,15.40
2019-02-28T14:00:54.567Z,15.77
2019-02-28T14:03:24.731Z,15.00
2019-02-28T14:05:53.888Z,13.50
2019-02-28T14:08:36.310Z,12.53
2019-02-28T14:11:10.143Z,11.53
2019-02-28T14:13:37.267Z,10.80
2019-02-28T14:16:06.749Z,10.23
2019-02-28T14:18:37.303Z,10.07
2019-02-28T14:21:06.892Z,10.20
2019-02-28T14:23:36.470Z,9.03
2019-02-28T14:26:06.128Z,7.37
2019-02-28T14:28:36.299Z,9.27
2019-02-28T14:31:05.826Z,8.70
2019-02-28T14:33:35.373Z,8.00
2019-02-28T14:36:07.418Z,8.23
2019-02-28T14:38:35.955Z,8.70
2019-02-28T14:41:07.996Z,8.47
2019-02-28T14:43:37.451Z,8.40
2019-02-28T14:46:06.906Z,7.77
2019-02-28T14:48:36.675Z,8.23
2019-02-28T14:51:07.723Z,9.10
2019-02-28T14:53:37.261Z,8.20
2019-02-28T14:56:07.265Z,7.33
2019-02-28T14:58:37.758Z,7.03
2019-02-28T15:01:08.495Z,6.73
2019-02-28T15:03:37.905Z,7.23
2019-02-28T15:06:07.432Z,7.30
2019-02-28T15:08:36.814Z,7.37
2019-02-28T15:11:10.013Z,7.33
2019-02-28T15:13:37.716Z,8.67
2019-02-28T15:16:07.309Z,8.00
2019-02-28T15:18:36.894Z,8.43
2019-02-28T15:21:07.485Z,7.97
2019-02-28T15:23:37.683Z,8.20
2019-02-28T15:26:07.071Z,8.33
2019-02-28T15:28:36.671Z,9.00
2019-02-28T15:31:08.629Z,8.27
2019-02-28T15:33:37.389Z,8.53
2019-02-28T15:36:06.781Z,8.10
2019-02-28T15:38:36.323Z,8.50
2019-02-28T15:41:05.764Z,8.17
2019-02-28T15:43:35.157Z,8.80
2019-02-28T15:46:04.765Z,7.83
2019-02-28T15:48:35.739Z,8.30
2019-02-28T15:51:05.421Z,8.23
2019-02-28T15:53:34.810Z,9.33
2019-02-28T15:56:12.992Z,8.77
2019-02-28T15:58:37.615Z,8.73
2019-02-28T16:01:07.601Z,8.63
2019-02-28T16:03:36.982Z,9.00
2019-02-28T16:06:06.491Z,9.13
2019-02-28T16:08:35.855Z,8.87
2019-02-28T16:11:06.223Z,9.57
2019-02-28T16:13:36.655Z,9.53
2019-02-28T16:16:07.021Z,9.73
2019-02-28T16:18:36.685Z,8.77
2019-02-28T16:21:07.174Z,10.10
2019-02-28T16:23:37.176Z,9.47
2019-02-28T16:26:06.828Z,9.83
2019-02-28T16:28:39.413Z,9.67
2019-02-28T16:31:07.885Z,9.70
2019-02-28T16:33:37.414Z,10.43
2019-02-28T16:36:06.859Z,10.30
2019-02-28T16:38:36.228Z,10.17
2019-02-28T16:41:05.878Z,9.63
2019-02-28T16:43:35.466Z,9.50
2019-02-28T16:46:06.011Z,10.90
2019-02-28T16:48:36.592Z,10.47
2019-02-28T16:51:06.611Z,10.83
2019-02-28T16:53:37.052Z,10.13
2019-02-28T16:56:07.516Z,10.87
2019-02-28T16:58:36.947Z,10.60
2019-02-28T17:01:06.522Z,10.30
2019-02-28T17:03:38.327Z,11.00
2019-02-28T17:06:07.144Z,9.60
2019-02-28T17:08:38.333Z,10.20
2019-02-28T17:11:07.848Z,10.30
2019-02-28T17:13:39.478Z,9.73
2019-02-28T17:16:10.608Z,9.27
2019-02-28T17:18:41.301Z,9.50
2019-02-28T17:21:16.700Z,9.67
2019-02-28T17:23:42.042Z,8.63
2019-02-28T17:26:11.423Z,9.20
2019-02-28T17:28:49.809Z,8.87
2019-02-28T17:31:40.350Z,9.17
2019-02-28T17:34:12.184Z,9.70
2019-02-28T17:36:44.157Z,9.43
2019-02-28T17:39:14.854Z,9.57
2019-02-28T17:41:44.612Z,10.67
2019-02-28T17:44:28.980Z,9.77
2019-02-28T17:47:07.543Z,9.07
2019-02-28T17:50:07.975Z,10.27
2019-02-28T17:52:48.941Z,9.20
2019-02-28T17:55:36.517Z,9.43
2019-02-28T17:58:17.804Z,9.23
2019-02-28T18:01:19.371Z,9.47
2019-02-28T18:04:11.103Z,9.53
2019-02-28T18:07:01.838Z,9.17
2019-02-28T18:09:44.949Z,9.70
2019-02-28T18:12:52.284Z,10.13
2019-02-28T18:15:59.664Z,9.40
2019-02-28T18:18:34.681Z,8.60
2019-02-28T18:21:28.013Z,8.27
2019-02-28T18:24:06.386Z,7.13
2019-02-28T18:27:11.598Z,7.20
2019-02-28T18:30:02.584Z,7.30
2019-02-28T18:32:34.062Z,7.53
2019-02-28T18:35:04.584Z,7.33
2019-02-28T18:37:34.338Z,8.13
2019-02-28T18:40:07.064Z,7.20
2019-02-28T18:42:37.108Z,7.00
2019-02-28T18:45:09.373Z,7.23
2019-02-28T18:47:40.769Z,7.63
2019-02-28T18:50:10.403Z,6.67
2019-02-28T18:52:39.725Z,6.83
2019-02-28T18:55:09.522Z,6.17
2019-02-28T18:57:39.216Z,6.57
2019-02-28T19:00:15.618Z,5.07
2019-02-28T19:02:45.258Z,5.77
2019-02-28T19:05:14.637Z,6.27
2019-02-28T19:07:44.330Z,5.90
2019-02-28T19:10:13.926Z,4.90
2019-02-28T19:12:43.319Z,5.63
2019-02-28T19:15:15.209Z,5.50
2019-02-28T19:17:44.799Z,5.13
2019-02-28T19:20:14.327Z,5.30
2019-02-28T19:22:43.827Z,5.27
2019-02-28T19:25:13.417Z,5.03
2019-02-28T19:27:42.868Z,4.50
2019-02-28T19:30:17.035Z,4.80
2019-02-28T19:32:46.764Z,4.90
2019-02-28T19:35:16.552Z,5.33
2019-02-28T19:37:46.167Z,4.77
2019-02-28T19:40:15.799Z,4.30
2019-02-28T19:42:45.201Z,5.03
2019-02-28T19:45:20.451Z,4.57
2019-02-28T19:47:49.830Z,4.13
2019-02-28T19:50:19.153Z,4.50
2019-02-28T19:52:48.849Z,4.83
2019-02-28T19:55:18.500Z,4.30
2019-02-28T19:57:47.879Z,4.50
2019-02-28T20:00:18.772Z,4.53
2019-02-28T20:02:48.241Z,3.87
2019-02-28T20:05:18.029Z,3.80
2019-02-28T20:07:47.689Z,4.63
2019-02-28T20:10:20.297Z,4.43
2019-02-28T20:12:49.806Z,4.00
2019-02-28T20:15:22.300Z,4.13
2019-02-28T20:17:51.848Z,4.03
2019-02-28T20:20:26.751Z,3.67
2019-02-28T20:22:56.289Z,4.23
2019-02-28T20:25:25.884Z,4.10
2019-02-28T20:27:55.350Z,4.03
2019-02-28T20:30:26.779Z,3.83
2019-02-28T20:32:56.244Z,4.03
2019-02-28T20:35:26.806Z,3.90
2019-02-28T20:37:56.631Z,3.47
2019-02-28T20:40:35.186Z,4.10
2019-02-28T20:43:04.981Z,3.73
2019-02-28T20:45:34.563Z,3.53
2019-02-28T20:48:04.369Z,3.97
2019-02-28T20:50:37.256Z,3.30
2019-02-28T20:53:06.654Z,4.03
2019-02-28T20:55:36.106Z,3.33
2019-02-28T20:58:06.060Z,3.50
2019-02-28T21:00:35.671Z,3.70
2019-02-28T21:03:05.202Z,3.50
2019-02-28T21:05:34.684Z,3.50
2019-02-28T21:08:04.221Z,4.40
2019-02-28T21:10:33.606Z,3.37
2019-02-28T21:13:03.368Z,3.23
2019-02-28T21:15:32.886Z,3.53
2019-02-28T21:18:02.682Z,2.73
2019-02-28T21:20:32.210Z,3.40
2019-02-28T21:23:01.927Z,2.50
2019-02-28T21:25:31.481Z,2.50
2019-02-28T21:28:01.048Z,2.57
2019-02-28T21:30:30.672Z,2.47
2019-02-28T21:33:00.272Z,2.40
2019-02-28T21:35:29.955Z,2.20
2019-02-28T21:37:59.668Z,2.30
2019-02-28T21:40:29.387Z,2.40
2019-02-28T21:42:59.009Z,2.23
2019-02-28T21:45:29.133Z,2.30
2019-02-28T21:47:58.866Z,2.30
2019-02-28T21:50:28.288Z,1.60
2019-02-28T21:52:58.939Z,2.07
2019-02-28T21:55:28.872Z,1.70
2019-02-28T21:57:58.509Z,1.60
2019-02-28T22:00:29.921Z,1.90
2019-02-28T22:02:59.232Z,1.77
2019-02-28T22:05:28.930Z,2.03
2019-02-28T22:07:58.458Z,1.70
2019-02-28T22:10:27.834Z,1.73
2019-02-28T22:12:57.237Z,1.87
2019-02-28T22:15:26.942Z,2.03
2019-02-28T22:17:56.284Z,2.27
2019-02-28T22:20:25.710Z,1.73
2019-02-28T22:22:55.082Z,1.70
2019-02-28T22:25:24.544Z,1.50
2019-02-28T22:27:53.908Z,1.60
2019-02-28T22:30:43.360Z,1.60
2019-02-28T22:33:21.187Z,1.80
2019-02-28T22:35:52.221Z,1.63
2019-02-28T22:38:21.549Z,1.57
2019-02-28T22:40:50.913Z,1.83
2019-02-28T22:43:20.444Z,1.40
2019-02-28T22:45:49.977Z,1.67
2019-02-28T22:48:19.453Z,1.60
2019-02-28T22:50:48.840Z,1.83
2019-02-28T22:53:18.213Z,1.93
2019-02-28T22:55:47.571Z,2.10
2019-02-28T22:58:16.985Z,2.10
2019-02-28T23:00:59.061Z,1.87
2019-02-28T23:03:30.640Z,1.90
2019-02-28T23:06:00.277Z,1.90
2019-02-28T23:08:29.669Z,2.13
2019-02-28T23:10:59.385Z,1.60
2019-02-28T23:13:28.745Z,2.20
2019-02-28T23:15:58.463Z,2.00
2019-02-28T23:18:27.922Z,1.93
2019-02-28T23:20:57.357Z,2.07
2019-02-28T23:23:26.793Z,2.23
2019-02-28T23:26:08.328Z,1.97
2019-02-28T23:28:43.790Z,2.37
2019-02-28T23:31:46.558Z,2.03
2019-02-28T23:34:24.564Z,1.80
2019-02-28T23:36:53.904Z,2.13
2019-02-28T23:39:23.209Z,2.03
2019-02-28T23:41:52.594Z,2.00
2019-02-28T23:44:23.979Z,2.23
2019-02-28T23:46:54.430Z,2.20
2019-02-28T23:49:23.854Z,2.13
2019-02-28T23:51:53.397Z,2.23
2019-02-28T23:54:22.907Z,2.10
2019-02-28T23:56:52.440Z,2.10
2019-02-28T23:59:21.794Z,2.60
